Weather at La Rochelle-Île de Ré Airport

Public forecast

Using degrees Celsius for public forecast. Weather courtesy of forecast.io.

Current aviation weather report (METAR) for La Rochelle-Île de Ré Airport

Retrieved 2021/06/17 01:30 UTC (2 minutes ago):

LFBH 170130Z AUTO 22008KT 180V250 9999 FEW009 BKN014 BKN140 20/19 Q1009 TEMPO BKN005

Aviation forecast (TAF) for La Rochelle-Île de Ré Airport

Retrieved 2021-06-17 00:42 UTC (50 minutes ago):

TAF LFBH 162300Z 1700/1724 21010KT CAVOK TEMPO 1700/1706 -RA BKN005 TEMPO 1706/1710 BKN010 BECMG 1712/1714 31010KT TEMPO 1714/1724 4000 SHRA BKN010 BKN020TCU PROB30 TEMPO 1715/1724 2000 TSRA BKN005 BKN020CB